createdAt,value
2023-02-13T00:00:51.923Z,81.31
2023-02-13T00:03:19.028Z,81.48
2023-02-13T00:05:45.935Z,81.57
2023-02-13T00:08:12.799Z,81.56
2023-02-13T00:10:40.380Z,81.40
2023-02-13T00:13:07.161Z,81.50
2023-02-13T00:15:34.371Z,81.38
2023-02-13T00:18:02.945Z,81.76
2023-02-13T00:20:29.776Z,81.43
2023-02-13T00:22:56.586Z,81.50
2023-02-13T00:25:23.352Z,81.53
2023-02-13T00:27:52.412Z,81.67
2023-02-13T00:30:19.309Z,81.59
2023-02-13T00:32:46.574Z,81.77
2023-02-13T00:35:13.417Z,81.52
2023-02-13T00:37:40.190Z,81.62
2023-02-13T00:40:08.076Z,81.49
2023-02-13T00:42:34.880Z,81.47
2023-02-13T00:45:01.640Z,81.79
2023-02-13T00:47:28.464Z,81.86
2023-02-13T00:49:55.270Z,82.08
2023-02-13T00:52:22.066Z,82.20
2023-02-13T00:54:48.913Z,82.29
2023-02-13T00:57:15.708Z,82.49
2023-02-13T00:59:42.523Z,82.71
2023-02-13T01:02:09.330Z,82.89
2023-02-13T01:04:36.164Z,83.34
2023-02-13T01:07:02.949Z,83.49
2023-02-13T01:09:29.763Z,83.51
2023-02-13T01:11:56.569Z,83.59
2023-02-13T01:14:23.454Z,83.87
2023-02-13T01:16:50.234Z,84.12
2023-02-13T01:19:17.447Z,84.28
2023-02-13T01:21:44.767Z,84.35
2023-02-13T01:24:11.924Z,84.32
2023-02-13T01:26:39.637Z,84.44
2023-02-13T01:29:06.779Z,85.09
2023-02-13T01:31:34.165Z,84.74
2023-02-13T01:34:01.181Z,84.71
2023-02-13T01:36:28.163Z,84.92
2023-02-13T01:38:58.460Z,84.89
2023-02-13T01:41:27.363Z,84.72
2023-02-13T01:43:58.911Z,85.06
2023-02-13T01:46:37.841Z,85.21
2023-02-13T01:49:33.986Z,85.33
2023-02-13T01:52:00.853Z,85.29
2023-02-13T01:54:31.489Z,85.42
2023-02-13T01:57:22.510Z,85.21
2023-02-13T02:00:08.120Z,85.33
2023-02-13T02:02:40.746Z,85.86
2023-02-13T02:05:09.322Z,85.69
2023-02-13T02:07:38.357Z,85.82
2023-02-13T02:10:10.716Z,86.00
2023-02-13T02:13:07.160Z,85.79
2023-02-13T02:15:34.202Z,86.10
2023-02-13T02:18:01.022Z,86.10
2023-02-13T02:21:09.984Z,86.12
2023-02-13T02:24:27.667Z,86.89
2023-02-13T02:27:25.976Z,86.53
2023-02-13T02:30:17.303Z,86.32
2023-02-13T02:33:26.731Z,86.35
2023-02-13T02:36:12.479Z,86.34
2023-02-13T02:39:04.093Z,86.45
2023-02-13T02:42:23.566Z,86.61
2023-02-13T02:45:39.409Z,86.32
2023-02-13T02:48:36.948Z,86.07
2023-02-13T02:51:29.764Z,86.43
2023-02-13T02:54:41.663Z,86.47
2023-02-13T02:57:16.647Z,86.74
2023-02-13T03:00:02.840Z,86.65
2023-02-13T03:02:51.562Z,86.40
2023-02-13T03:05:50.931Z,86.93
2023-02-13T03:08:41.374Z,87.13
2023-02-13T03:11:28.149Z,86.85
2023-02-13T03:13:56.049Z,86.88
2023-02-13T03:16:44.403Z,87.00
2023-02-13T03:20:05.781Z,86.92
2023-02-13T03:22:57.650Z,87.10
2023-02-13T03:25:41.662Z,87.29
2023-02-13T03:29:26.335Z,87.36
2023-02-13T03:32:16.146Z,87.46
2023-02-13T03:35:18.480Z,87.17
2023-02-13T03:37:56.768Z,87.49
2023-02-13T03:41:05.343Z,87.36
2023-02-13T03:43:59.243Z,87.43
2023-02-13T03:46:31.313Z,87.52
2023-02-13T03:49:18.867Z,87.66
2023-02-13T03:51:51.811Z,87.34
2023-02-13T03:54:44.041Z,87.72
2023-02-13T03:57:37.496Z,87.91
2023-02-13T04:00:11.905Z,87.80
2023-02-13T04:02:50.341Z,87.71
2023-02-13T04:05:24.845Z,87.96
2023-02-13T04:07:51.781Z,88.12
2023-02-13T04:10:20.540Z,88.23
2023-02-13T04:13:15.373Z,87.92
2023-02-13T04:16:06.692Z,87.94
2023-02-13T04:18:34.877Z,88.13
2023-02-13T04:21:05.211Z,88.06
2023-02-13T04:23:32.179Z,88.08
2023-02-13T04:26:03.277Z,88.00
2023-02-13T04:28:30.369Z,88.45
2023-02-13T04:30:58.857Z,88.20
2023-02-13T04:33:26.014Z,88.37
2023-02-13T04:35:53.142Z,88.22
2023-02-13T04:38:19.901Z,88.53
2023-02-13T04:40:46.690Z,88.92
2023-02-13T04:43:13.611Z,89.07
2023-02-13T04:45:40.481Z,89.09
2023-02-13T04:48:07.335Z,88.68
2023-02-13T04:50:34.109Z,88.91
2023-02-13T04:53:00.899Z,88.77
2023-02-13T04:55:28.613Z,88.99
2023-02-13T04:57:56.381Z,89.20
2023-02-13T05:00:25.993Z,89.20
2023-02-13T05:02:54.070Z,89.39
2023-02-13T05:05:21.633Z,89.16
2023-02-13T05:07:48.509Z,89.25
2023-02-13T05:10:15.383Z,89.49
2023-02-13T05:12:42.175Z,90.02
2023-02-13T05:15:09.784Z,89.58
2023-02-13T05:17:36.580Z,89.80
2023-02-13T05:20:03.868Z,89.65
2023-02-13T05:22:49.291Z,89.58
2023-02-13T05:25:16.274Z,90.13
2023-02-13T05:27:43.020Z,89.85
2023-02-13T05:30:10.701Z,90.13
2023-02-13T05:32:37.815Z,89.92
2023-02-13T05:35:06.027Z,89.85
2023-02-13T05:37:32.923Z,90.25
2023-02-13T05:39:59.871Z,90.26
2023-02-13T05:42:26.870Z,90.13
2023-02-13T05:44:53.641Z,89.94
2023-02-13T05:47:20.456Z,90.14
2023-02-13T05:49:47.225Z,90.54
2023-02-13T05:52:13.999Z,89.93
2023-02-13T05:54:41.215Z,89.90
2023-02-13T05:57:08.150Z,90.06
2023-02-13T05:59:34.934Z,90.26
2023-02-13T06:02:01.764Z,90.15
2023-02-13T06:04:30.454Z,90.13
2023-02-13T06:06:57.615Z,89.99
2023-02-13T06:09:24.452Z,90.43
2023-02-13T06:11:51.288Z,90.17
2023-02-13T06:14:18.077Z,90.09
2023-02-13T06:16:44.899Z,90.27
2023-02-13T06:19:11.672Z,90.02
2023-02-13T06:21:39.076Z,89.86
2023-02-13T06:24:09.711Z,90.06
2023-02-13T06:26:36.560Z,89.90
2023-02-13T06:29:05.107Z,89.65
2023-02-13T06:31:32.544Z,89.86
2023-02-13T06:33:59.409Z,90.16
2023-02-13T06:36:26.228Z,89.72
2023-02-13T06:38:53.040Z,89.56
2023-02-13T06:41:20.352Z,89.98
2023-02-13T06:43:47.180Z,89.50
2023-02-13T06:46:13.995Z,89.73
2023-02-13T06:48:40.840Z,89.92
2023-02-13T06:51:07.717Z,89.93
2023-02-13T06:53:34.526Z,89.67
2023-02-13T06:56:06.643Z,89.57
2023-02-13T06:58:34.421Z,89.68
2023-02-13T07:01:01.337Z,89.35
2023-02-13T07:03:28.526Z,89.49
2023-02-13T07:05:55.410Z,89.53
2023-02-13T07:08:22.662Z,89.66
2023-02-13T07:10:49.954Z,89.56
2023-02-13T07:13:16.858Z,89.28
2023-02-13T07:15:43.783Z,89.48
2023-02-13T07:18:10.824Z,89.40
2023-02-13T07:20:37.685Z,89.19
2023-02-13T07:23:07.041Z,89.01
2023-02-13T07:25:34.288Z,89.10
2023-02-13T07:28:03.660Z,89.25
2023-02-13T07:30:32.479Z,89.35
2023-02-13T07:33:01.720Z,89.17
2023-02-13T07:35:28.735Z,89.31
2023-02-13T07:37:56.203Z,89.23
2023-02-13T07:40:23.378Z,89.33
2023-02-13T07:42:50.190Z,89.17
2023-02-13T07:45:17.129Z,89.19
2023-02-13T07:47:44.357Z,89.32
2023-02-13T07:50:12.639Z,89.19
2023-02-13T07:52:39.541Z,89.32
2023-02-13T07:55:06.983Z,89.38
2023-02-13T07:57:34.623Z,89.44
2023-02-13T08:00:01.919Z,89.33
2023-02-13T08:02:28.854Z,89.07
2023-02-13T08:04:56.043Z,89.23
2023-02-13T08:07:22.895Z,89.42
2023-02-13T08:10:08.344Z,89.32
2023-02-13T08:12:36.728Z,89.06
2023-02-13T08:15:04.679Z,89.03
2023-02-13T08:17:31.611Z,88.90
2023-02-13T08:19:58.561Z,88.67
2023-02-13T08:22:25.781Z,88.77
2023-02-13T08:24:52.927Z,88.67
2023-02-13T08:27:20.347Z,88.48
2023-02-13T08:29:49.448Z,88.41
2023-02-13T08:32:16.581Z,88.40
2023-02-13T08:34:43.488Z,88.20
2023-02-13T08:37:10.288Z,87.88
2023-02-13T08:39:37.262Z,87.47
2023-02-13T08:42:04.208Z,87.65
2023-02-13T08:44:31.055Z,87.56
2023-02-13T08:46:58.044Z,87.28
2023-02-13T08:49:25.050Z,87.13
2023-02-13T08:51:51.820Z,87.19
2023-02-13T08:54:18.791Z,87.01
2023-02-13T08:56:45.790Z,86.84
2023-02-13T08:59:12.562Z,86.92
2023-02-13T09:01:39.526Z,86.97
2023-02-13T09:04:06.429Z,86.80
2023-02-13T09:06:33.660Z,85.95
2023-02-13T09:09:00.445Z,85.94
2023-02-13T09:11:27.265Z,85.69
2023-02-13T09:13:54.453Z,84.75
2023-02-13T09:16:21.830Z,84.92
2023-02-13T09:18:50.221Z,84.61
2023-02-13T09:21:18.406Z,84.38
2023-02-13T09:23:46.067Z,84.18
2023-02-13T09:26:16.452Z,83.96
2023-02-13T09:28:43.949Z,83.29
2023-02-13T09:31:17.733Z,83.47
2023-02-13T09:33:46.391Z,83.25
2023-02-13T09:36:16.620Z,83.18
2023-02-13T09:38:44.384Z,81.54
2023-02-13T09:41:21.566Z,80.82
2023-02-13T09:43:52.874Z,81.19
2023-02-13T09:46:40.670Z,81.29
2023-02-13T09:49:17.510Z,80.88
2023-02-13T09:51:47.455Z,80.75
2023-02-13T09:54:19.208Z,80.17
2023-02-13T09:57:00.617Z,79.81
2023-02-13T09:59:41.170Z,79.77
2023-02-13T10:02:38.774Z,79.50
2023-02-13T10:05:26.952Z,79.28
2023-02-13T10:08:08.500Z,79.53
2023-02-13T10:10:50.534Z,79.21
2023-02-13T10:13:48.455Z,79.08
2023-02-13T10:16:29.440Z,79.33
2023-02-13T10:19:06.867Z,79.38
2023-02-13T10:21:42.908Z,79.26
2023-02-13T10:24:40.427Z,78.65
2023-02-13T10:27:34.946Z,78.12
2023-02-13T10:30:26.526Z,78.09
2023-02-13T10:33:20.872Z,77.71
2023-02-13T10:36:03.857Z,77.47
2023-02-13T10:38:36.003Z,76.90
2023-02-13T10:41:36.278Z,77.19
2023-02-13T10:44:42.735Z,77.02
2023-02-13T10:47:24.456Z,77.20
2023-02-13T10:50:40.145Z,76.67
2023-02-13T10:53:24.991Z,76.93
2023-02-13T10:56:03.761Z,76.56
2023-02-13T10:59:15.949Z,76.50
2023-02-13T11:02:02.729Z,76.16
2023-02-13T11:04:30.308Z,75.64
2023-02-13T11:07:04.399Z,75.19
2023-02-13T11:09:39.002Z,75.36
2023-02-13T11:12:31.918Z,75.66
2023-02-13T11:15:08.864Z,75.95
2023-02-13T11:17:40.370Z,76.08
2023-02-13T11:20:27.810Z,76.28
2023-02-13T11:22:56.100Z,75.96
2023-02-13T11:25:32.025Z,75.94
2023-02-13T11:28:17.985Z,75.88
2023-02-13T11:30:44.988Z,75.88
2023-02-13T11:33:17.756Z,75.90
2023-02-13T11:35:46.231Z,75.56
2023-02-13T11:38:15.976Z,75.14
2023-02-13T11:40:47.944Z,74.83
2023-02-13T11:43:29.325Z,74.77
2023-02-13T11:46:22.349Z,74.79
2023-02-13T11:49:07.925Z,74.71
2023-02-13T11:51:47.373Z,74.53
2023-02-13T11:55:00.265Z,74.26
2023-02-13T11:57:34.196Z,74.30
2023-02-13T12:00:28.933Z,73.91
2023-02-13T12:02:55.836Z,73.85
2023-02-13T12:05:28.453Z,73.99
2023-02-13T12:08:02.180Z,73.91
2023-02-13T12:10:33.835Z,73.94
2023-02-13T12:13:13.988Z,74.08
2023-02-13T12:15:41.848Z,73.84
2023-02-13T12:18:40.159Z,73.62
2023-02-13T12:21:56.256Z,73.86
2023-02-13T12:24:44.249Z,73.83
2023-02-13T12:27:26.267Z,73.64
2023-02-13T12:30:14.976Z,73.74
2023-02-13T12:33:16.787Z,73.73
2023-02-13T12:35:55.452Z,73.47
2023-02-13T12:38:51.516Z,73.38
2023-02-13T12:41:44.489Z,72.86
2023-02-13T12:44:52.858Z,73.12
2023-02-13T12:47:31.818Z,72.97
2023-02-13T12:50:39.811Z,72.65
2023-02-13T12:53:24.862Z,72.50
2023-02-13T12:56:09.057Z,72.45
2023-02-13T12:58:51.375Z,72.64
2023-02-13T13:01:46.542Z,72.88
2023-02-13T13:04:50.949Z,72.69
2023-02-13T13:08:04.557Z,71.58
2023-02-13T13:11:11.042Z,71.85
2023-02-13T13:13:54.936Z,72.17
2023-02-13T13:17:29.576Z,71.73
2023-02-13T13:20:14.483Z,72.34
2023-02-13T13:22:53.979Z,72.38
2023-02-13T13:25:30.984Z,72.22
2023-02-13T13:28:27.812Z,71.76
2023-02-13T13:30:55.727Z,71.58
2023-02-13T13:33:26.388Z,71.41
2023-02-13T13:36:18.830Z,71.08
2023-02-13T13:39:22.892Z,71.73
2023-02-13T13:42:11.925Z,71.70
2023-02-13T13:44:50.443Z,71.81
2023-02-13T13:47:35.412Z,71.50
2023-02-13T13:50:06.220Z,71.33
2023-02-13T13:52:40.342Z,71.06
2023-02-13T13:55:48.853Z,70.85
2023-02-13T13:58:44.124Z,71.17
2023-02-13T14:01:31.184Z,70.55
2023-02-13T14:04:32.879Z,70.64
2023-02-13T14:06:59.607Z,70.48
2023-02-13T14:09:43.852Z,70.46
2023-02-13T14:12:50.349Z,70.56
2023-02-13T14:15:39.018Z,70.51
2023-02-13T14:18:08.246Z,70.18
2023-02-13T14:20:43.090Z,70.27
2023-02-13T14:23:53.513Z,70.62
2023-02-13T14:26:32.090Z,70.87
2023-02-13T14:29:16.839Z,70.89
2023-02-13T14:32:01.223Z,71.16
2023-02-13T14:34:38.664Z,70.79
2023-02-13T14:37:13.141Z,70.68
2023-02-13T14:39:42.365Z,70.74
2023-02-13T14:42:30.283Z,70.50
2023-02-13T14:45:00.652Z,70.75
2023-02-13T14:47:32.847Z,70.88
2023-02-13T14:50:03.892Z,70.63
2023-02-13T14:52:40.329Z,70.93
2023-02-13T14:55:45.881Z,70.59
2023-02-13T14:58:28.214Z,70.80
2023-02-13T15:01:06.149Z,70.77
2023-02-13T15:03:38.319Z,70.44
2023-02-13T15:06:14.905Z,70.09
2023-02-13T15:08:49.696Z,70.13
2023-02-13T15:11:43.171Z,70.04
2023-02-13T15:14:35.643Z,70.49
2023-02-13T15:17:24.174Z,70.30
2023-02-13T15:20:05.122Z,70.45
2023-02-13T15:22:36.374Z,70.60
2023-02-13T15:25:04.493Z,70.76
2023-02-13T15:27:39.205Z,70.55
2023-02-13T15:30:22.525Z,70.65
2023-02-13T15:32:59.726Z,70.89
2023-02-13T15:35:38.935Z,71.10
2023-02-13T15:38:39.273Z,71.48
2023-02-13T15:41:24.409Z,71.70
2023-02-13T15:43:56.600Z,71.46
2023-02-13T15:46:33.927Z,71.71
2023-02-13T15:49:07.402Z,71.79
2023-02-13T15:51:35.292Z,72.05
2023-02-13T15:54:07.326Z,72.08
2023-02-13T15:56:35.229Z,72.01
2023-02-13T15:59:03.889Z,72.12
2023-02-13T16:01:32.311Z,72.17
2023-02-13T16:04:06.817Z,71.87
2023-02-13T16:06:35.078Z,71.99
2023-02-13T16:09:04.586Z,71.97
2023-02-13T16:11:44.799Z,72.01
2023-02-13T16:14:21.742Z,72.09
2023-02-13T16:17:18.057Z,72.36
2023-02-13T16:19:50.889Z,72.38
2023-02-13T16:22:38.142Z,72.61
2023-02-13T16:25:16.767Z,72.80
2023-02-13T16:28:18.781Z,73.13
2023-02-13T16:30:51.580Z,72.83
2023-02-13T16:33:36.361Z,73.15
2023-02-13T16:36:09.443Z,73.44
2023-02-13T16:38:46.487Z,73.55
2023-02-13T16:41:19.376Z,73.86
2023-02-13T16:43:53.967Z,74.10
2023-02-13T16:46:26.949Z,74.53
2023-02-13T16:48:56.893Z,74.68
2023-02-13T16:51:42.825Z,75.28
2023-02-13T16:54:12.432Z,75.61
2023-02-13T16:56:49.933Z,75.92
2023-02-13T16:59:42.064Z,76.35
2023-02-13T17:02:12.970Z,76.48
2023-02-13T17:04:39.949Z,76.75
2023-02-13T17:07:14.048Z,76.83
2023-02-13T17:09:40.982Z,76.94
2023-02-13T17:12:18.254Z,77.55
2023-02-13T17:14:45.450Z,77.66
2023-02-13T17:17:15.957Z,78.27
2023-02-13T17:19:43.052Z,78.28
2023-02-13T17:22:40.170Z,79.05
2023-02-13T17:25:17.758Z,79.32
2023-02-13T17:27:45.285Z,79.66
2023-02-13T17:30:24.951Z,80.06
2023-02-13T17:32:59.569Z,80.43
2023-02-13T17:35:26.787Z,80.82
2023-02-13T17:37:54.024Z,81.07
2023-02-13T17:40:29.889Z,81.33
2023-02-13T17:42:58.571Z,81.43
2023-02-13T17:45:29.043Z,81.49
2023-02-13T17:47:57.964Z,81.70
2023-02-13T17:50:27.594Z,81.87
2023-02-13T17:52:55.076Z,82.19
2023-02-13T17:55:29.140Z,81.93
2023-02-13T17:57:57.818Z,81.96
2023-02-13T18:00:29.280Z,81.98
2023-02-13T18:02:59.501Z,82.19
2023-02-13T18:05:28.698Z,82.58
2023-02-13T18:07:56.096Z,82.83
2023-02-13T18:10:29.331Z,82.77
2023-02-13T18:13:04.069Z,83.50
2023-02-13T18:15:40.267Z,83.80
2023-02-13T18:18:07.914Z,84.43
2023-02-13T18:20:35.011Z,84.44
2023-02-13T18:23:02.036Z,84.71
2023-02-13T18:25:29.829Z,85.24
2023-02-13T18:27:56.642Z,85.22
2023-02-13T18:30:23.799Z,85.49
2023-02-13T18:32:56.162Z,85.56
2023-02-13T18:35:23.458Z,85.51
2023-02-13T18:37:51.230Z,86.33
2023-02-13T18:40:18.519Z,86.12
2023-02-13T18:42:45.436Z,86.24
2023-02-13T18:45:12.676Z,86.04
2023-02-13T18:47:39.531Z,85.88
2023-02-13T18:50:07.677Z,86.00
2023-02-13T18:52:35.327Z,85.81
2023-02-13T18:55:02.743Z,85.97
2023-02-13T18:57:29.672Z,86.35
2023-02-13T18:59:56.603Z,86.41
2023-02-13T19:02:23.800Z,86.40
2023-02-13T19:04:50.829Z,86.75
2023-02-13T19:07:17.628Z,87.28
2023-02-13T19:09:44.663Z,87.29
2023-02-13T19:12:11.738Z,87.71
2023-02-13T19:14:39.865Z,88.05
2023-02-13T19:17:08.658Z,87.95
2023-02-13T19:19:35.544Z,87.86
2023-02-13T19:22:03.521Z,88.66
2023-02-13T19:24:30.616Z,88.60
2023-02-13T19:26:57.391Z,88.41
2023-02-13T19:29:24.313Z,88.57
2023-02-13T19:31:51.117Z,89.29
2023-02-13T19:34:18.242Z,89.21
2023-02-13T19:36:45.035Z,89.79
2023-02-13T19:39:12.032Z,89.93
2023-02-13T19:41:41.069Z,89.89
2023-02-13T19:44:09.347Z,89.90
2023-02-13T19:46:38.254Z,89.75
2023-02-13T19:49:06.308Z,89.81
2023-02-13T19:51:35.070Z,90.16
2023-02-13T19:54:05.895Z,90.19
2023-02-13T19:56:36.227Z,90.09
2023-02-13T19:59:04.349Z,91.05
2023-02-13T20:01:31.233Z,90.79
2023-02-13T20:03:58.585Z,90.90
2023-02-13T20:06:35.829Z,91.76
2023-02-13T20:09:10.441Z,91.53
2023-02-13T20:11:37.408Z,91.88
2023-02-13T20:14:05.909Z,92.11
2023-02-13T20:16:35.576Z,92.70
2023-02-13T20:19:07.160Z,93.07
2023-02-13T20:21:35.408Z,93.15
2023-02-13T20:24:03.306Z,93.28
2023-02-13T20:26:30.441Z,93.27
2023-02-13T20:28:59.611Z,93.76
2023-02-13T20:31:31.234Z,94.08
2023-02-13T20:33:58.672Z,93.96
2023-02-13T20:36:29.268Z,93.58
2023-02-13T20:38:59.798Z,93.42
2023-02-13T20:41:30.435Z,93.62
2023-02-13T20:44:04.645Z,93.62
2023-02-13T20:46:38.208Z,94.28
2023-02-13T20:49:05.791Z,94.90
2023-02-13T20:51:32.764Z,94.46
2023-02-13T20:54:00.486Z,94.23
2023-02-13T20:56:28.564Z,94.50
2023-02-13T20:59:00.635Z,94.76
2023-02-13T21:01:35.506Z,95.07
2023-02-13T21:04:04.052Z,95.37
2023-02-13T21:06:37.142Z,95.69
2023-02-13T21:09:08.215Z,95.65
2023-02-13T21:11:39.043Z,95.89
2023-02-13T21:14:07.148Z,96.61
2023-02-13T21:16:39.941Z,96.14
2023-02-13T21:19:17.858Z,96.19
2023-02-13T21:21:47.399Z,96.15
2023-02-13T21:24:24.540Z,96.45
2023-02-13T21:26:57.976Z,96.20
2023-02-13T21:29:25.969Z,96.06
2023-02-13T21:31:53.574Z,96.87
2023-02-13T21:34:22.922Z,96.75
2023-02-13T21:36:49.939Z,97.32
2023-02-13T21:39:16.957Z,97.47
2023-02-13T21:41:45.472Z,97.34
2023-02-13T21:44:17.025Z,97.35
2023-02-13T21:46:45.533Z,97.66
2023-02-13T21:49:16.560Z,98.42
2023-02-13T21:51:43.915Z,98.16
2023-02-13T21:54:11.777Z,98.62
2023-02-13T21:56:40.767Z,98.38
2023-02-13T21:59:08.304Z,98.23
2023-02-13T22:01:38.751Z,98.01
2023-02-13T22:04:08.752Z,97.80
2023-02-13T22:06:39.177Z,98.09
2023-02-13T22:09:10.294Z,97.82
2023-02-13T22:11:38.511Z,97.28
2023-02-13T22:14:08.629Z,97.57
2023-02-13T22:16:38.831Z,97.78
2023-02-13T22:19:07.432Z,98.22
2023-02-13T22:21:35.705Z,98.06
2023-02-13T22:24:03.491Z,98.42
2023-02-13T22:26:39.366Z,99.05
2023-02-13T22:29:11.513Z,98.97
2023-02-13T22:31:39.185Z,99.31
2023-02-13T22:34:07.077Z,98.93
2023-02-13T22:36:39.202Z,99.02
2023-02-13T22:39:08.267Z,98.77
2023-02-13T22:41:35.162Z,98.58
2023-02-13T22:44:01.979Z,98.46
2023-02-13T22:46:31.843Z,98.17
2023-02-13T22:48:59.783Z,98.10
2023-02-13T22:51:31.864Z,98.10
2023-02-13T22:54:00.099Z,98.33
2023-02-13T22:56:29.729Z,98.15
2023-02-13T22:58:57.280Z,98.18
2023-02-13T23:01:27.060Z,98.48
2023-02-13T23:03:55.213Z,98.28
2023-02-13T23:06:22.590Z,98.24
2023-02-13T23:08:52.889Z,98.28
2023-02-13T23:11:41.670Z,98.36
2023-02-13T23:14:10.180Z,98.49
2023-02-13T23:16:58.853Z,99.71
2023-02-13T23:19:27.687Z,99.25
2023-02-13T23:21:54.593Z,99.37
2023-02-13T23:24:21.714Z,99.42
2023-02-13T23:26:48.548Z,99.44
2023-02-13T23:29:15.389Z,99.31
2023-02-13T23:31:42.362Z,99.46
2023-02-13T23:34:09.685Z,99.58
2023-02-13T23:36:36.669Z,99.83
2023-02-13T23:39:03.596Z,99.60
2023-02-13T23:41:31.102Z,99.57
2023-02-13T23:43:57.882Z,99.63
2023-02-13T23:46:24.742Z,99.83
2023-02-13T23:48:51.630Z,100.00
2023-02-13T23:51:18.666Z,100.00
2023-02-13T23:53:45.822Z,99.94
2023-02-13T23:56:12.605Z,99.82
2023-02-13T23:58:39.373Z,100.00
